This is the latest recevied weather packets stored in our database for station/object SV2BZQ-2. If no packets are shown the sender has not sent any weather packets the latest 10 day(s).
| Time | Temp. | Humidity | Pressure | Rain* | Wind** | Luminosity | Snow |
|---|---|---|---|---|---|---|---|
| 1777357325 | 13.33° C | 92% | 1017.7 hPa | 0 mm | - | 390 W/m² | - |
| 1777355105 | 11.11° C | 93% | 1017.5 hPa | 0 mm | - | 288 W/m² | - |
| 1777353826 | 10° C | 92% | 1017.3 hPa | 0 mm | - | 223 W/m² | - |
| 1777349031 | 8.89° C | 90% | 1016.7 hPa | 0 mm | - | 12 W/m² | - |
| 1777345298 | 10° C | 90% | 1016.8 hPa | 0 mm | - | 0 W/m² | - |
| 1777343233 | 10° C | 89% | 1017.1 hPa | 0 mm | - | 0 W/m² | - |
| 1777341961 | 10.56° C | 89% | 1017.2 hPa | 0 mm | - | 0 W/m² | - |
| 1777341341 | 10.56° C | 89% | 1017.3 hPa | 0 mm | - | 0 W/m² | - |
| 1777341072 | 10.56° C | 89% | 1017.3 hPa | 0 mm | - | 0 W/m² | - |
| 1777338105 | 11.11° C | 87% | 1017.4 hPa | 0 mm | - | 0 W/m² | - |
| 1777336873 | 11.11° C | 86% | 1017.5 hPa | 0 mm | - | 0 W/m² | - |
| 1777335062 | 11.67° C | 86% | 1017.7 hPa | 0 mm | - | 0 W/m² | - |
| 1777333279 | 12.78° C | 85% | 1017.8 hPa | 0 mm | - | 0 W/m² | - |
| 1777330744 | 13.33° C | 81% | 1017.9 hPa | 0 mm | - | 0 W/m² | - |
| 1777329656 | 13.89° C | 79% | 1017.9 hPa | 0 mm | - | 0 W/m² | - |
| 1777328998 | 21.67° C | 55% | 1018.5 hPa | 0 mm | - | 731 W/m² | - |
| 1777328655 | 13.89° C | 79% | 1017.9 hPa | 0 mm | - | 0 W/m² | - |
| 1777327716 | 13.89° C | 79% | 1017.9 hPa | 0 mm | - | 0 W/m² | - |
| 1777327704 | 16.11° C | 82% | 1018 hPa | 0 mm | - | 0 W/m² | - |
| 1777325573 | 14.44° C | 82% | 1018.2 hPa | 0 mm | - | 0 W/m² | - |
| 1777325222 | 20° C | 70% | 1017.4 hPa | 0 mm | - | 490 W/m² | - |
| 1777324369 | 14.44° C | 83% | 1018.3 hPa | 0 mm | - | 0 W/m² | - |
| 1777319946 | 15.56° C | 84% | 1018.5 hPa | 0 mm | - | 0 W/m² | - |
| 1777318701 | 15.56° C | 84% | 1018.5 hPa | 0 mm | - | 0 W/m² | - |
| 1777318491 | 15.56° C | 84% | 1018.6 hPa | 0 mm | - | 0 W/m² | - |
* Rain latest hour (hover to see other rain measurements)
** Current wind speed in m/s (hover to see current wind gust speed)